Nearby METAR Reports

 

EGPN - Dundee/Riverside, United Kingdom
Distance from station: SSE 10km
Updated: 22/06/2021 14:50
Few Clouds
Few Clouds
 Wind from SW
Wind: SW 8 mph , 13 km/h
Temperature: 18°C
Dew Point: 9°C
Humidity: 56%
Barometer: 1021 hPa
Clouds: Few Clouds
Visibility: 6 miles , 10 km
Cloud details: Few Clouds 762 m
2021/06/22 13:50 EGPN 221350Z 22007KT 9999 FEW025 18/09 Q1021
EGQL - Leuchars Raf, United Kingdom
Distance from station: SE 21km
Updated: 22/06/2021 14:50
Partly cloudy
Partly cloudy
 Wind from ESE
Wind: ESE 14 mph , 22 km/h
Temperature: 17°C
Dew Point: 8°C
Humidity: 56%
Barometer: 1021 hPa
Clouds: Partly cloudy
Visibility: 6 miles , 10 km
Cloud details: Partly cloudy 1372 m
2021/06/22 13:50 EGQL 221350Z 12012KT 9999 SCT045 17/08 Q1021 BLU
 
EGPH - Edinburgh Airpor, United Kingdom
Distance from station: SSW 67km
Updated: 22/06/2021 14:50
Clear
Clear
 Wind from varies
Wind: varies 5 mph , 7 km/h
Temperature: 19°C
Dew Point: 6°C
Humidity: 43%
Barometer: 1021 hPa
Summary: Clear
Visibility: greater than 7 miles , 10 km
2021/06/22 13:50 EGPH 221350Z VRB04KT CAVOK 19/06 Q1021
EGPD - Aberdeen/Dyce, United Kingdom
Distance from station: NE 91km
Updated: 22/06/2021 14:50
Clear
Clear
 Wind from SE
Wind: SE 13 mph , 20 km/h
Temperature: 15°C
Dew Point: 7°C
Humidity: 59%
Barometer: 1021 hPa
Clouds: Clear
Visibility: 6 miles , 10 km
2021/06/22 13:50 EGPD 221350Z AUTO 13011KT 9999 NCD 15/07 Q1021 NOSIG
 
EGPF - Glasgow Airport, United Kingdom
Distance from station: SW 111km
Updated: 22/06/2021 14:50
Clear
Clear
 Wind from W
Wind: W 9 mph , 15 km/h
Temperature: 18°C
Dew Point: 6°C
Humidity: 46%
Barometer: 1022 hPa
Clouds: Clear
Visibility: 6 miles , 10 km
2021/06/22 13:50 EGPF 221350Z AUTO 27008KT 230V330 9999 NCD 18/06 Q1022
EGPE - Inverness/Dalcro, United Kingdom
Distance from station: NNW 124km
Updated: 22/06/2021 14:50
Clear
Clear
 Wind from SW
Wind: SW 12 mph , 19 km/h
Temperature: 19°C
Dew Point: 6°C
Humidity: 43%
Barometer: 1020 hPa
Summary: Clear
Visibility: greater than 7 miles , 10 km
2021/06/22 13:50 EGPE 221350Z 22010KT 180V260 CAVOK 19/06 Q1020
 
EGQK - Kinloss Raf, United Kingdom
Distance from station: NNW 128km
Updated: 22/06/2021 13:50
NOT Current
Clear
Clear
 Wind from N
Wind: N 8 mph , 13 km/h
Temperature: 17°C
Dew Point: 6°C
Humidity: 49%
Barometer: 1020 hPa
Clouds: Clear
2021/06/22 12:50 EGQK 221250Z AUTO 01007KT //// NCD 17/06 Q1020
EGQS - Lossiemouth Raf, United Kingdom
Distance from station: N 133km
Updated: 22/06/2021 14:50
Clear
Clear
 Wind from E
Wind: E 9 mph , 15 km/h
Temperature: 16°C
Dew Point: 6°C
Humidity: 52%
Barometer: 1020 hPa
Summary: Clear
Visibility: greater than 7 miles , 10 km
2021/06/22 13:50 EGQS 221350Z 08008KT CAVOK 16/06 Q1020 NOSIG RMK BLU BLU
 
EGPK - Prestwick(Civ/Na, United Kingdom
Distance from station: SW 148km
Updated: 22/06/2021 14:50
Few Clouds
Few Clouds
 Wind from W
Wind: W 13 mph , 20 km/h
Temperature: 16°C
Dew Point: 7°C
Humidity: 55%
Barometer: 1023 hPa
Clouds: Few Clouds
Visibility: 6 miles , 10 km
Cloud details: Few Clouds 1463 m
2021/06/22 13:50 EGPK 221350Z 26011KT 230V300 9999 FEW048 16/07 Q1023
EGQA - Tain Range (saws, United Kingdom
Distance from station: NNW 154km
Updated: 22/06/2021 14:50
Few Clouds
Few Clouds
 Wind from SSW
Wind: SSW 12 mph , 19 km/h
Clouds: Few Clouds
Visibility: 6 miles , 10 km
Cloud details: Few Clouds 610 m
2021/06/22 13:50 EGQA 221350Z 21010KT 9999 FEW020 15/// Q1020 RMK BLU
 
EGQM - Boulmer, United Kingdom
Distance from station: SE 154km
Updated: 22/06/2021 14:50
Clear
Clear
 Wind from E
Wind: E 8 mph , 13 km/h
Temperature: 14°C
Dew Point: 7°C
Humidity: 63%
Barometer: 1022 hPa
Clouds: Clear
Visibility: 6 miles , 10 km
2021/06/22 13:50 EGQM 221350Z AUTO 09007KT 9999 NCD 14/07 Q1022